sensor_id;sensor_type;location;lat;lon;timestamp;P1;durP1;ratioP1;P2;durP2;ratioP2
11066;SDS011;29763;50.904;5.530;2023-08-01T00:00:34;1.35;;;0.60;;
11066;SDS011;29763;50.904;5.530;2023-08-01T00:03:22;0.80;;;0.75;;
11066;SDS011;29763;50.904;5.530;2023-08-01T00:05:50;0.80;;;0.70;;
11066;SDS011;29763;50.904;5.530;2023-08-01T00:08:18;1.75;;;0.93;;
11066;SDS011;29763;50.904;5.530;2023-08-01T00:10:44;0.80;;;0.80;;
11066;SDS011;29763;50.904;5.530;2023-08-01T00:13:11;0.88;;;0.88;;
11066;SDS011;29763;50.904;5.530;2023-08-01T00:15:37;1.58;;;1.02;;
11066;SDS011;29763;50.904;5.530;2023-08-01T00:18:05;1.05;;;0.50;;
11066;SDS011;29763;50.904;5.530;2023-08-01T00:20:32;0.98;;;0.98;;
11066;SDS011;29763;50.904;5.530;2023-08-01T00:22:58;0.80;;;0.80;;
11066;SDS011;29763;50.904;5.530;2023-08-01T00:25:25;0.60;;;0.60;;
11066;SDS011;29763;50.904;5.530;2023-08-01T00:27:52;1.13;;;0.77;;
11066;SDS011;29763;50.904;5.530;2023-08-01T00:30:18;0.60;;;0.60;;
11066;SDS011;29763;50.904;5.530;2023-08-01T00:32:44;1.65;;;0.80;;
11066;SDS011;29763;50.904;5.530;2023-08-01T00:35:11;1.10;;;1.00;;
11066;SDS011;29763;50.904;5.530;2023-08-01T00:37:43;1.77;;;1.10;;
11066;SDS011;29763;50.904;5.530;2023-08-01T00:40:09;0.70;;;0.70;;
11066;SDS011;29763;50.904;5.530;2023-08-01T00:42:37;0.90;;;0.90;;
11066;SDS011;29763;50.904;5.530;2023-08-01T00:45:04;1.73;;;0.82;;
11066;SDS011;29763;50.904;5.530;2023-08-01T00:47:32;1.00;;;1.00;;
11066;SDS011;29763;50.904;5.530;2023-08-01T00:49:58;1.30;;;0.93;;
11066;SDS011;29763;50.904;5.530;2023-08-01T00:52:26;1.30;;;1.20;;
11066;SDS011;29763;50.904;5.530;2023-08-01T00:54:52;1.67;;;1.10;;
11066;SDS011;29763;50.904;5.530;2023-08-01T00:57:18;1.50;;;1.17;;
11066;SDS011;29763;50.904;5.530;2023-08-01T00:59:47;1.58;;;1.35;;
11066;SDS011;29763;50.904;5.530;2023-08-01T01:02:16;2.00;;;1.10;;
11066;SDS011;29763;50.904;5.530;2023-08-01T01:04:42;2.38;;;1.13;;
11066;SDS011;29763;50.904;5.530;2023-08-01T01:07:08;1.38;;;1.00;;
11066;SDS011;29763;50.904;5.530;2023-08-01T01:09:35;1.50;;;1.23;;
11066;SDS011;29763;50.904;5.530;2023-08-01T01:12:01;2.15;;;1.10;;
11066;SDS011;29763;50.904;5.530;2023-08-01T01:14:29;2.25;;;1.60;;
11066;SDS011;29763;50.904;5.530;2023-08-01T01:17:01;1.65;;;1.40;;
11066;SDS011;29763;50.904;5.530;2023-08-01T01:19:28;1.60;;;1.50;;
11066;SDS011;29763;50.904;5.530;2023-08-01T01:21:54;1.40;;;1.30;;
11066;SDS011;29763;50.904;5.530;2023-08-01T01:24:21;1.55;;;1.45;;
11066;SDS011;29763;50.904;5.530;2023-08-01T01:26:49;1.52;;;1.42;;
11066;SDS011;29763;50.904;5.530;2023-08-01T01:29:16;2.13;;;1.35;;
11066;SDS011;29763;50.904;5.530;2023-08-01T01:31:43;1.65;;;1.45;;
11066;SDS011;29763;50.904;5.530;2023-08-01T01:34:10;1.70;;;1.45;;
11066;SDS011;29763;50.904;5.530;2023-08-01T01:36:36;1.50;;;1.40;;
11066;SDS011;29763;50.904;5.530;2023-08-01T01:39:02;3.00;;;1.60;;
11066;SDS011;29763;50.904;5.530;2023-08-01T01:41:36;2.67;;;1.60;;
11066;SDS011;29763;50.904;5.530;2023-08-01T01:44:05;1.77;;;1.67;;
11066;SDS011;29763;50.904;5.530;2023-08-01T01:46:32;2.22;;;1.85;;
11066;SDS011;29763;50.904;5.530;2023-08-01T01:48:58;3.05;;;2.08;;
11066;SDS011;29763;50.904;5.530;2023-08-01T01:51:25;2.38;;;2.10;;
11066;SDS011;29763;50.904;5.530;2023-08-01T01:53:55;5.10;;;2.20;;
11066;SDS011;29763;50.904;5.530;2023-08-01T01:56:22;3.30;;;2.60;;
11066;SDS011;29763;50.904;5.530;2023-08-01T01:58:47;4.53;;;2.50;;
11066;SDS011;29763;50.904;5.530;2023-08-01T02:01:16;4.63;;;2.67;;
11066;SDS011;29763;50.904;5.530;2023-08-01T02:03:42;6.30;;;3.00;;
11066;SDS011;29763;50.904;5.530;2023-08-01T02:06:08;2.58;;;2.35;;
11066;SDS011;29763;50.904;5.530;2023-08-01T02:08:41;3.63;;;2.95;;
11066;SDS011;29763;50.904;5.530;2023-08-01T02:11:07;3.60;;;2.65;;
11066;SDS011;29763;50.904;5.530;2023-08-01T02:13:33;3.83;;;2.85;;
11066;SDS011;29763;50.904;5.530;2023-08-01T02:16:01;3.63;;;3.10;;
11066;SDS011;29763;50.904;5.530;2023-08-01T02:18:34;5.05;;;3.13;;
11066;SDS011;29763;50.904;5.530;2023-08-01T02:21:01;4.68;;;2.97;;
11066;SDS011;29763;50.904;5.530;2023-08-01T02:23:28;4.05;;;3.20;;
11066;SDS011;29763;50.904;5.530;2023-08-01T02:25:58;5.60;;;3.30;;
11066;SDS011;29763;50.904;5.530;2023-08-01T02:28:24;3.72;;;2.97;;
11066;SDS011;29763;50.904;5.530;2023-08-01T02:30:50;3.42;;;2.90;;
11066;SDS011;29763;50.904;5.530;2023-08-01T02:33:17;4.47;;;3.58;;
11066;SDS011;29763;50.904;5.530;2023-08-01T02:35:42;3.90;;;3.15;;
11066;SDS011;29763;50.904;5.530;2023-08-01T02:38:08;5.00;;;3.60;;
11066;SDS011;29763;50.904;5.530;2023-08-01T02:40:35;4.28;;;3.47;;
11066;SDS011;29763;50.904;5.530;2023-08-01T02:43:00;6.50;;;3.70;;
11066;SDS011;29763;50.904;5.530;2023-08-01T02:45:26;4.60;;;3.30;;
11066;SDS011;29763;50.904;5.530;2023-08-01T02:47:53;5.18;;;3.80;;
11066;SDS011;29763;50.904;5.530;2023-08-01T02:50:19;4.95;;;3.40;;
11066;SDS011;29763;50.904;5.530;2023-08-01T02:52:45;4.30;;;3.40;;
11066;SDS011;29763;50.904;5.530;2023-08-01T02:55:11;5.20;;;3.72;;
11066;SDS011;29763;50.904;5.530;2023-08-01T02:57:37;5.80;;;3.30;;
11066;SDS011;29763;50.904;5.530;2023-08-01T03:00:03;7.30;;;3.92;;
11066;SDS011;29763;50.904;5.530;2023-08-01T03:02:31;4.47;;;3.70;;
11066;SDS011;29763;50.904;5.530;2023-08-01T03:04:57;4.43;;;3.55;;
11066;SDS011;29763;50.904;5.530;2023-08-01T03:07:24;4.20;;;3.67;;
11066;SDS011;29763;50.904;5.530;2023-08-01T03:09:50;7.55;;;4.10;;
11066;SDS011;29763;50.904;5.530;2023-08-01T03:12:28;4.72;;;4.05;;
11066;SDS011;29763;50.904;5.530;2023-08-01T03:14:56;5.93;;;4.20;;
11066;SDS011;29763;50.904;5.530;2023-08-01T03:17:21;8.70;;;4.00;;
11066;SDS011;29763;50.904;5.530;2023-08-01T03:19:47;7.20;;;4.28;;
11066;SDS011;29763;50.904;5.530;2023-08-01T03:22:14;6.15;;;3.97;;
11066;SDS011;29763;50.904;5.530;2023-08-01T03:24:40;5.45;;;4.20;;
11066;SDS011;29763;50.904;5.530;2023-08-01T03:27:07;5.18;;;4.00;;
11066;SDS011;29763;50.904;5.530;2023-08-01T03:29:32;5.90;;;4.10;;
11066;SDS011;29763;50.904;5.530;2023-08-01T03:31:58;5.70;;;3.85;;
11066;SDS011;29763;50.904;5.530;2023-08-01T03:34:25;4.00;;;3.58;;
11066;SDS011;29763;50.904;5.530;2023-08-01T03:36:52;4.85;;;4.00;;
11066;SDS011;29763;50.904;5.530;2023-08-01T03:39:18;5.18;;;3.97;;
11066;SDS011;29763;50.904;5.530;2023-08-01T03:41:45;4.28;;;3.80;;
11066;SDS011;29763;50.904;5.530;2023-08-01T03:44:14;6.53;;;3.70;;
11066;SDS011;29763;50.904;5.530;2023-08-01T03:46:42;6.35;;;4.00;;
11066;SDS011;29763;50.904;5.530;2023-08-01T03:49:07;5.80;;;4.00;;
11066;SDS011;29763;50.904;5.530;2023-08-01T03:51:34;5.25;;;4.18;;
11066;SDS011;29763;50.904;5.530;2023-08-01T03:54:00;5.13;;;3.92;;
11066;SDS011;29763;50.904;5.530;2023-08-01T03:56:28;7.78;;;4.55;;
11066;SDS011;29763;50.904;5.530;2023-08-01T03:58:58;6.95;;;4.32;;
11066;SDS011;29763;50.904;5.530;2023-08-01T04:01:25;5.47;;;4.60;;
11066;SDS011;29763;50.904;5.530;2023-08-01T04:03:54;6.47;;;4.43;;
11066;SDS011;29763;50.904;5.530;2023-08-01T04:06:20;6.95;;;4.75;;
11066;SDS011;29763;50.904;5.530;2023-08-01T04:08:48;6.00;;;4.88;;
11066;SDS011;29763;50.904;5.530;2023-08-01T04:11:17;10.13;;;4.95;;
11066;SDS011;29763;50.904;5.530;2023-08-01T04:13:43;7.75;;;4.95;;
11066;SDS011;29763;50.904;5.530;2023-08-01T04:16:09;7.93;;;5.30;;
11066;SDS011;29763;50.904;5.530;2023-08-01T04:18:34;10.15;;;5.20;;
11066;SDS011;29763;50.904;5.530;2023-08-01T04:21:01;9.65;;;6.03;;
11066;SDS011;29763;50.904;5.530;2023-08-01T04:23:30;8.38;;;5.43;;
11066;SDS011;29763;50.904;5.530;2023-08-01T04:25:55;7.25;;;5.63;;
11066;SDS011;29763;50.904;5.530;2023-08-01T04:28:23;8.38;;;5.75;;
11066;SDS011;29763;50.904;5.530;2023-08-01T04:30:51;6.10;;;5.55;;
11066;SDS011;29763;50.904;5.530;2023-08-01T04:33:18;6.55;;;5.10;;
11066;SDS011;29763;50.904;5.530;2023-08-01T04:35:44;9.40;;;5.80;;
11066;SDS011;29763;50.904;5.530;2023-08-01T04:38:20;8.02;;;5.80;;
11066;SDS011;29763;50.904;5.530;2023-08-01T04:40:46;8.13;;;5.95;;
11066;SDS011;29763;50.904;5.530;2023-08-01T04:43:13;8.57;;;6.15;;
11066;SDS011;29763;50.904;5.530;2023-08-01T04:45:43;8.38;;;6.07;;
11066;SDS011;29763;50.904;5.530;2023-08-01T04:48:11;7.65;;;6.07;;
11066;SDS011;29763;50.904;5.530;2023-08-01T04:50:57;10.20;;;6.30;;
11066;SDS011;29763;50.904;5.530;2023-08-01T04:53:26;11.05;;;6.70;;
11066;SDS011;29763;50.904;5.530;2023-08-01T04:55:52;9.70;;;6.32;;
11066;SDS011;29763;50.904;5.530;2023-08-01T04:58:20;10.10;;;6.45;;
11066;SDS011;29763;50.904;5.530;2023-08-01T05:00:52;12.15;;;6.97;;
11066;SDS011;29763;50.904;5.530;2023-08-01T05:03:25;10.50;;;6.90;;
11066;SDS011;29763;50.904;5.530;2023-08-01T05:05:51;8.00;;;6.47;;
11066;SDS011;29763;50.904;5.530;2023-08-01T05:08:17;9.07;;;6.20;;
11066;SDS011;29763;50.904;5.530;2023-08-01T05:10:45;9.90;;;6.43;;
11066;SDS011;29763;50.904;5.530;2023-08-01T05:13:11;10.40;;;6.30;;
11066;SDS011;29763;50.904;5.530;2023-08-01T05:15:37;9.32;;;6.13;;
11066;SDS011;29763;50.904;5.530;2023-08-01T05:18:08;12.20;;;6.68;;
11066;SDS011;29763;50.904;5.530;2023-08-01T05:20:36;11.73;;;6.72;;
11066;SDS011;29763;50.904;5.530;2023-08-01T05:23:02;10.00;;;6.80;;
11066;SDS011;29763;50.904;5.530;2023-08-01T05:25:29;10.32;;;5.90;;
11066;SDS011;29763;50.904;5.530;2023-08-01T05:27:56;9.82;;;6.53;;
11066;SDS011;29763;50.904;5.530;2023-08-01T05:30:23;11.25;;;6.43;;
11066;SDS011;29763;50.904;5.530;2023-08-01T05:32:49;10.90;;;6.72;;
11066;SDS011;29763;50.904;5.530;2023-08-01T05:35:19;10.77;;;6.30;;
11066;SDS011;29763;50.904;5.530;2023-08-01T05:37:52;10.15;;;6.60;;
11066;SDS011;29763;50.904;5.530;2023-08-01T05:40:19;8.45;;;5.60;;
11066;SDS011;29763;50.904;5.530;2023-08-01T05:42:45;8.95;;;6.13;;
11066;SDS011;29763;50.904;5.530;2023-08-01T05:45:14;9.23;;;6.00;;
11066;SDS011;29763;50.904;5.530;2023-08-01T05:47:47;9.73;;;5.68;;
11066;SDS011;29763;50.904;5.530;2023-08-01T05:50:19;8.18;;;5.70;;
11066;SDS011;29763;50.904;5.530;2023-08-01T05:52:48;9.70;;;5.88;;
11066;SDS011;29763;50.904;5.530;2023-08-01T05:55:14;12.20;;;6.38;;
11066;SDS011;29763;50.904;5.530;2023-08-01T05:57:39;11.90;;;6.45;;
11066;SDS011;29763;50.904;5.530;2023-08-01T06:00:10;10.52;;;6.65;;
11066;SDS011;29763;50.904;5.530;2023-08-01T06:02:37;11.82;;;7.63;;
11066;SDS011;29763;50.904;5.530;2023-08-01T06:05:03;8.85;;;6.65;;
11066;SDS011;29763;50.904;5.530;2023-08-01T06:07:39;11.70;;;7.70;;
11066;SDS011;29763;50.904;5.530;2023-08-01T06:10:07;9.75;;;7.40;;
11066;SDS011;29763;50.904;5.530;2023-08-01T06:12:33;10.43;;;7.63;;
11066;SDS011;29763;50.904;5.530;2023-08-01T06:15:19;14.70;;;8.30;;
11066;SDS011;29763;50.904;5.530;2023-08-01T06:17:46;10.45;;;8.23;;
11066;SDS011;29763;50.904;5.530;2023-08-01T06:20:12;11.68;;;8.48;;
11066;SDS011;29763;50.904;5.530;2023-08-01T06:22:39;13.05;;;8.23;;
11066;SDS011;29763;50.904;5.530;2023-08-01T06:25:11;12.02;;;7.90;;
11066;SDS011;29763;50.904;5.530;2023-08-01T06:27:38;12.95;;;7.72;;
11066;SDS011;29763;50.904;5.530;2023-08-01T06:30:08;14.10;;;8.27;;
11066;SDS011;29763;50.904;5.530;2023-08-01T06:32:35;15.15;;;8.50;;
11066;SDS011;29763;50.904;5.530;2023-08-01T06:35:08;12.68;;;7.88;;
11066;SDS011;29763;50.904;5.530;2023-08-01T06:37:38;9.85;;;7.78;;
11066;SDS011;29763;50.904;5.530;2023-08-01T06:40:04;13.32;;;7.85;;
11066;SDS011;29763;50.904;5.530;2023-08-01T06:42:33;11.18;;;7.72;;
11066;SDS011;29763;50.904;5.530;2023-08-01T06:44:59;15.10;;;7.40;;
11066;SDS011;29763;50.904;5.530;2023-08-01T06:47:27;12.55;;;7.55;;
11066;SDS011;29763;50.904;5.530;2023-08-01T06:49:53;10.93;;;7.85;;
11066;SDS011;29763;50.904;5.530;2023-08-01T06:52:20;16.08;;;8.32;;
11066;SDS011;29763;50.904;5.530;2023-08-01T06:54:52;14.55;;;8.10;;
11066;SDS011;29763;50.904;5.530;2023-08-01T06:57:19;15.07;;;7.95;;
11066;SDS011;29763;50.904;5.530;2023-08-01T06:59:46;11.43;;;7.85;;
11066;SDS011;29763;50.904;5.530;2023-08-01T07:02:12;10.48;;;6.75;;
11066;SDS011;29763;50.904;5.530;2023-08-01T07:04:40;11.40;;;7.03;;
11066;SDS011;29763;50.904;5.530;2023-08-01T07:07:06;10.70;;;7.30;;
11066;SDS011;29763;50.904;5.530;2023-08-01T07:09:35;10.98;;;6.97;;
11066;SDS011;29763;50.904;5.530;2023-08-01T07:12:01;9.35;;;6.82;;
11066;SDS011;29763;50.904;5.530;2023-08-01T07:14:30;10.85;;;6.85;;
11066;SDS011;29763;50.904;5.530;2023-08-01T07:16:56;11.32;;;6.28;;
11066;SDS011;29763;50.904;5.530;2023-08-01T07:19:22;8.07;;;5.68;;
11066;SDS011;29763;50.904;5.530;2023-08-01T07:21:50;11.75;;;6.90;;
11066;SDS011;29763;50.904;5.530;2023-08-01T07:24:18;10.90;;;6.50;;
11066;SDS011;29763;50.904;5.530;2023-08-01T07:26:45;9.82;;;6.07;;
11066;SDS011;29763;50.904;5.530;2023-08-01T07:29:14;12.50;;;6.22;;
11066;SDS011;29763;50.904;5.530;2023-08-01T07:31:41;9.20;;;6.25;;
11066;SDS011;29763;50.904;5.530;2023-08-01T07:34:07;11.18;;;5.95;;
11066;SDS011;29763;50.904;5.530;2023-08-01T07:36:33;11.70;;;6.22;;
11066;SDS011;29763;50.904;5.530;2023-08-01T07:38:59;10.15;;;6.32;;
11066;SDS011;29763;50.904;5.530;2023-08-01T07:41:35;10.00;;;6.53;;
11066;SDS011;29763;50.904;5.530;2023-08-01T07:44:01;10.10;;;6.07;;
11066;SDS011;29763;50.904;5.530;2023-08-01T07:46:32;10.75;;;6.30;;
11066;SDS011;29763;50.904;5.530;2023-08-01T07:49:07;9.60;;;6.28;;
11066;SDS011;29763;50.904;5.530;2023-08-01T07:51:35;8.05;;;5.85;;
11066;SDS011;29763;50.904;5.530;2023-08-01T07:54:05;9.23;;;6.40;;
11066;SDS011;29763;50.904;5.530;2023-08-01T07:56:31;11.50;;;6.25;;
11066;SDS011;29763;50.904;5.530;2023-08-01T07:58:57;10.20;;;5.57;;
11066;SDS011;29763;50.904;5.530;2023-08-01T08:01:24;7.70;;;5.20;;
11066;SDS011;29763;50.904;5.530;2023-08-01T08:03:52;7.20;;;4.85;;
11066;SDS011;29763;50.904;5.530;2023-08-01T08:06:27;9.90;;;5.70;;
11066;SDS011;29763;50.904;5.530;2023-08-01T08:08:58;9.75;;;5.72;;
11066;SDS011;29763;50.904;5.530;2023-08-01T08:11:24;7.47;;;5.13;;
11066;SDS011;29763;50.904;5.530;2023-08-01T08:13:55;8.10;;;5.30;;
11066;SDS011;29763;50.904;5.530;2023-08-01T08:16:21;7.22;;;5.05;;
11066;SDS011;29763;50.904;5.530;2023-08-01T08:18:50;11.38;;;5.40;;
11066;SDS011;29763;50.904;5.530;2023-08-01T08:21:16;8.38;;;5.30;;
11066;SDS011;29763;50.904;5.530;2023-08-01T08:23:41;6.95;;;4.80;;
11066;SDS011;29763;50.904;5.530;2023-08-01T08:26:14;10.63;;;5.20;;
11066;SDS011;29763;50.904;5.530;2023-08-01T08:28:40;7.15;;;5.20;;
11066;SDS011;29763;50.904;5.530;2023-08-01T08:31:14;7.25;;;5.57;;
11066;SDS011;29763;50.904;5.530;2023-08-01T08:33:49;10.15;;;5.45;;
11066;SDS011;29763;50.904;5.530;2023-08-01T08:36:16;9.40;;;5.50;;
11066;SDS011;29763;50.904;5.530;2023-08-01T08:38:42;8.45;;;5.63;;
11066;SDS011;29763;50.904;5.530;2023-08-01T08:41:13;8.77;;;5.82;;
11066;SDS011;29763;50.904;5.530;2023-08-01T08:43:41;10.05;;;5.93;;
11066;SDS011;29763;50.904;5.530;2023-08-01T08:46:08;8.65;;;5.88;;
11066;SDS011;29763;50.904;5.530;2023-08-01T08:48:34;9.43;;;6.25;;
11066;SDS011;29763;50.904;5.530;2023-08-01T08:51:02;6.75;;;5.60;;
11066;SDS011;29763;50.904;5.530;2023-08-01T08:53:28;8.40;;;6.10;;
11066;SDS011;29763;50.904;5.530;2023-08-01T08:55:55;8.77;;;5.70;;
11066;SDS011;29763;50.904;5.530;2023-08-01T08:58:22;8.63;;;5.40;;
11066;SDS011;29763;50.904;5.530;2023-08-01T09:00:48;8.85;;;5.57;;
11066;SDS011;29763;50.904;5.530;2023-08-01T09:03:15;7.82;;;4.80;;
11066;SDS011;29763;50.904;5.530;2023-08-01T09:05:45;7.60;;;5.30;;
11066;SDS011;29763;50.904;5.530;2023-08-01T09:08:22;7.93;;;4.72;;
11066;SDS011;29763;50.904;5.530;2023-08-01T09:10:53;8.07;;;4.68;;
11066;SDS011;29763;50.904;5.530;2023-08-01T09:13:21;11.38;;;5.10;;
11066;SDS011;29763;50.904;5.530;2023-08-01T09:15:47;7.60;;;4.22;;
11066;SDS011;29763;50.904;5.530;2023-08-01T09:18:15;7.10;;;4.50;;
11066;SDS011;29763;50.904;5.530;2023-08-01T09:20:42;5.55;;;4.13;;
11066;SDS011;29763;50.904;5.530;2023-08-01T09:23:09;14.45;;;5.18;;
11066;SDS011;29763;50.904;5.530;2023-08-01T09:25:37;5.18;;;4.20;;
11066;SDS011;29763;50.904;5.530;2023-08-01T09:28:17;6.65;;;3.78;;
11066;SDS011;29763;50.904;5.530;2023-08-01T09:30:48;7.07;;;3.95;;
11066;SDS011;29763;50.904;5.530;2023-08-01T09:33:17;6.40;;;3.70;;
11066;SDS011;29763;50.904;5.530;2023-08-01T09:35:43;8.07;;;4.03;;
11066;SDS011;29763;50.904;5.530;2023-08-01T09:38:14;5.75;;;3.88;;
11066;SDS011;29763;50.904;5.530;2023-08-01T09:40:40;6.00;;;4.35;;
11066;SDS011;29763;50.904;5.530;2023-08-01T09:43:14;6.10;;;4.40;;
11066;SDS011;29763;50.904;5.530;2023-08-01T09:45:52;7.88;;;4.25;;
11066;SDS011;29763;50.904;5.530;2023-08-01T09:48:28;5.68;;;3.80;;
11066;SDS011;29763;50.904;5.530;2023-08-01T09:53:55;6.63;;;3.58;;
11066;SDS011;29763;50.904;5.530;2023-08-01T09:56:27;6.18;;;3.17;;
11066;SDS011;29763;50.904;5.530;2023-08-01T09:58:55;8.63;;;3.47;;
11066;SDS011;29763;50.904;5.530;2023-08-01T10:01:24;5.97;;;3.58;;
11066;SDS011;29763;50.904;5.530;2023-08-01T10:03:53;6.47;;;3.30;;
11066;SDS011;29763;50.904;5.530;2023-08-01T10:06:22;7.13;;;3.10;;
11066;SDS011;29763;50.904;5.530;2023-08-01T10:08:49;5.32;;;2.85;;
11066;SDS011;29763;50.904;5.530;2023-08-01T10:11:18;4.43;;;2.88;;
11066;SDS011;29763;50.904;5.530;2023-08-01T10:13:46;4.88;;;3.08;;
11066;SDS011;29763;50.904;5.530;2023-08-01T10:16:13;6.00;;;3.15;;
11066;SDS011;29763;50.904;5.530;2023-08-01T10:18:40;4.93;;;2.80;;
11066;SDS011;29763;50.904;5.530;2023-08-01T10:21:07;5.13;;;2.67;;
11066;SDS011;29763;50.904;5.530;2023-08-01T10:23:39;2.80;;;2.40;;
11066;SDS011;29763;50.904;5.530;2023-08-01T10:26:07;7.72;;;3.03;;
11066;SDS011;29763;50.904;5.530;2023-08-01T10:28:35;4.40;;;2.70;;
11066;SDS011;29763;50.904;5.530;2023-08-01T10:33:52;5.20;;;3.08;;
11066;SDS011;29763;50.904;5.530;2023-08-01T10:36:28;5.05;;;3.03;;
11066;SDS011;29763;50.904;5.530;2023-08-01T10:38:56;4.32;;;2.80;;
11066;SDS011;29763;50.904;5.530;2023-08-01T10:41:27;4.22;;;3.15;;
11066;SDS011;29763;50.904;5.530;2023-08-01T10:44:11;5.78;;;3.00;;
11066;SDS011;29763;50.904;5.530;2023-08-01T10:46:48;4.13;;;3.05;;
11066;SDS011;29763;50.904;5.530;2023-08-01T10:49:16;5.10;;;2.90;;
11066;SDS011;29763;50.904;5.530;2023-08-01T10:51:43;5.40;;;2.83;;
11066;SDS011;29763;50.904;5.530;2023-08-01T10:54:21;5.97;;;2.97;;
11066;SDS011;29763;50.904;5.530;2023-08-01T10:56:50;3.90;;;2.60;;
11066;SDS011;29763;50.904;5.530;2023-08-01T10:59:19;5.43;;;2.72;;
11066;SDS011;29763;50.904;5.530;2023-08-01T11:01:47;4.50;;;2.63;;
11066;SDS011;29763;50.904;5.530;2023-08-01T11:04:15;7.07;;;2.70;;
11066;SDS011;29763;50.904;5.530;2023-08-01T11:06:43;5.15;;;2.90;;
11066;SDS011;29763;50.904;5.530;2023-08-01T11:09:28;5.57;;;3.00;;
11066;SDS011;29763;50.904;5.530;2023-08-01T11:11:55;6.55;;;2.78;;
11066;SDS011;29763;50.904;5.530;2023-08-01T11:14:26;6.47;;;3.20;;
11066;SDS011;29763;50.904;5.530;2023-08-01T11:16:56;6.38;;;2.90;;
11066;SDS011;29763;50.904;5.530;2023-08-01T11:19:26;5.05;;;2.88;;
11066;SDS011;29763;50.904;5.530;2023-08-01T11:21:56;4.93;;;2.97;;
11066;SDS011;29763;50.904;5.530;2023-08-01T11:24:33;6.75;;;2.90;;
11066;SDS011;29763;50.904;5.530;2023-08-01T11:27:00;5.38;;;2.95;;
11066;SDS011;29763;50.904;5.530;2023-08-01T11:29:26;6.43;;;3.08;;
11066;SDS011;29763;50.904;5.530;2023-08-01T11:31:53;5.15;;;2.80;;
11066;SDS011;29763;50.904;5.530;2023-08-01T11:34:19;4.82;;;3.08;;
11066;SDS011;29763;50.904;5.530;2023-08-01T11:36:47;6.00;;;2.80;;
11066;SDS011;29763;50.904;5.530;2023-08-01T11:39:19;5.30;;;3.08;;
11066;SDS011;29763;50.904;5.530;2023-08-01T11:41:47;4.95;;;2.92;;
11066;SDS011;29763;50.904;5.530;2023-08-01T11:44:13;5.13;;;2.70;;
11066;SDS011;29763;50.904;5.530;2023-08-01T11:46:39;5.30;;;2.88;;
11066;SDS011;29763;50.904;5.530;2023-08-01T11:49:07;5.43;;;3.00;;
11066;SDS011;29763;50.904;5.530;2023-08-01T11:51:42;5.68;;;2.75;;
11066;SDS011;29763;50.904;5.530;2023-08-01T11:54:09;3.28;;;2.40;;
11066;SDS011;29763;50.904;5.530;2023-08-01T11:56:36;5.85;;;2.65;;
11066;SDS011;29763;50.904;5.530;2023-08-01T11:59:10;5.97;;;2.67;;
11066;SDS011;29763;50.904;5.530;2023-08-01T12:01:41;4.13;;;2.65;;
11066;SDS011;29763;50.904;5.530;2023-08-01T12:04:09;5.50;;;2.80;;
11066;SDS011;29763;50.904;5.530;2023-08-01T12:06:37;4.22;;;2.60;;
11066;SDS011;29763;50.904;5.530;2023-08-01T12:09:06;6.70;;;2.78;;
11066;SDS011;29763;50.904;5.530;2023-08-01T12:11:39;4.75;;;2.63;;
11066;SDS011;29763;50.904;5.530;2023-08-01T12:14:15;5.55;;;3.17;;
11066;SDS011;29763;50.904;5.530;2023-08-01T12:16:41;5.57;;;3.38;;
11066;SDS011;29763;50.904;5.530;2023-08-01T12:19:18;4.78;;;3.13;;
11066;SDS011;29763;50.904;5.530;2023-08-01T12:21:44;5.55;;;3.28;;
11066;SDS011;29763;50.904;5.530;2023-08-01T12:24:10;5.57;;;3.50;;
11066;SDS011;29763;50.904;5.530;2023-08-01T12:26:36;5.35;;;3.33;;
11066;SDS011;29763;50.904;5.530;2023-08-01T12:29:02;6.05;;;3.40;;
11066;SDS011;29763;50.904;5.530;2023-08-01T12:31:28;3.95;;;2.72;;
11066;SDS011;29763;50.904;5.530;2023-08-01T12:33:54;5.25;;;3.22;;
11066;SDS011;29763;50.904;5.530;2023-08-01T12:36:20;5.30;;;3.30;;
11066;SDS011;29763;50.904;5.530;2023-08-01T12:38:47;3.58;;;2.90;;
11066;SDS011;29763;50.904;5.530;2023-08-01T12:41:13;3.72;;;2.75;;
11066;SDS011;29763;50.904;5.530;2023-08-01T12:43:39;3.25;;;2.60;;
11066;SDS011;29763;50.904;5.530;2023-08-01T12:46:14;3.40;;;2.58;;
11066;SDS011;29763;50.904;5.530;2023-08-01T12:48:40;6.10;;;3.00;;
11066;SDS011;29763;50.904;5.530;2023-08-01T12:51:06;4.05;;;2.25;;
11066;SDS011;29763;50.904;5.530;2023-08-01T12:53:32;4.97;;;2.30;;
11066;SDS011;29763;50.904;5.530;2023-08-01T12:55:58;5.57;;;2.50;;
11066;SDS011;29763;50.904;5.530;2023-08-01T12:58:24;4.07;;;2.45;;
11066;SDS011;29763;50.904;5.530;2023-08-01T13:00:53;5.50;;;2.58;;
11066;SDS011;29763;50.904;5.530;2023-08-01T13:03:20;5.13;;;2.65;;
11066;SDS011;29763;50.904;5.530;2023-08-01T13:05:47;5.28;;;2.75;;
11066;SDS011;29763;50.904;5.530;2023-08-01T13:08:18;3.95;;;2.45;;
11066;SDS011;29763;50.904;5.530;2023-08-01T13:10:44;3.72;;;2.50;;
11066;SDS011;29763;50.904;5.530;2023-08-01T13:13:12;4.00;;;2.58;;
11066;SDS011;29763;50.904;5.530;2023-08-01T13:15:38;4.22;;;2.60;;
11066;SDS011;29763;50.904;5.530;2023-08-01T13:18:03;5.18;;;2.60;;
11066;SDS011;29763;50.904;5.530;2023-08-01T13:20:36;5.18;;;2.70;;
11066;SDS011;29763;50.904;5.530;2023-08-01T13:23:02;5.85;;;2.80;;
11066;SDS011;29763;50.904;5.530;2023-08-01T13:25:29;4.85;;;2.30;;
11066;SDS011;29763;50.904;5.530;2023-08-01T13:27:55;4.07;;;2.60;;
11066;SDS011;29763;50.904;5.530;2023-08-01T13:30:20;5.00;;;2.53;;
11066;SDS011;29763;50.904;5.530;2023-08-01T13:32:46;3.55;;;2.25;;
11066;SDS011;29763;50.904;5.530;2023-08-01T13:35:14;4.65;;;2.30;;
11066;SDS011;29763;50.904;5.530;2023-08-01T13:37:41;4.40;;;2.05;;
11066;SDS011;29763;50.904;5.530;2023-08-01T13:40:08;2.63;;;2.25;;
11066;SDS011;29763;50.904;5.530;2023-08-01T13:42:38;4.47;;;2.20;;
11066;SDS011;29763;50.904;5.530;2023-08-01T13:45:05;3.72;;;2.45;;
11066;SDS011;29763;50.904;5.530;2023-08-01T13:47:31;4.57;;;2.72;;
11066;SDS011;29763;50.904;5.530;2023-08-01T13:49:57;3.42;;;2.38;;
11066;SDS011;29763;50.904;5.530;2023-08-01T13:52:24;5.13;;;2.72;;
11066;SDS011;29763;50.904;5.530;2023-08-01T13:54:49;3.35;;;2.40;;
11066;SDS011;29763;50.904;5.530;2023-08-01T13:57:25;5.00;;;2.30;;
11066;SDS011;29763;50.904;5.530;2023-08-01T13:59:51;4.93;;;2.47;;
11066;SDS011;29763;50.904;5.530;2023-08-01T14:02:20;5.07;;;2.10;;
11066;SDS011;29763;50.904;5.530;2023-08-01T14:04:45;5.07;;;2.60;;
11066;SDS011;29763;50.904;5.530;2023-08-01T14:07:16;4.22;;;2.53;;
11066;SDS011;29763;50.904;5.530;2023-08-01T14:09:41;3.80;;;2.25;;
11066;SDS011;29763;50.904;5.530;2023-08-01T14:12:07;4.65;;;2.55;;
11066;SDS011;29763;50.904;5.530;2023-08-01T14:14:37;3.78;;;2.80;;
11066;SDS011;29763;50.904;5.530;2023-08-01T14:17:04;4.72;;;2.72;;
11066;SDS011;29763;50.904;5.530;2023-08-01T14:19:31;3.83;;;2.15;;
11066;SDS011;29763;50.904;5.530;2023-08-01T14:21:57;4.32;;;2.70;;
11066;SDS011;29763;50.904;5.530;2023-08-01T14:24:23;6.30;;;2.67;;
11066;SDS011;29763;50.904;5.530;2023-08-01T14:26:48;4.80;;;2.88;;
11066;SDS011;29763;50.904;5.530;2023-08-01T14:29:16;5.13;;;2.30;;
11066;SDS011;29763;50.904;5.530;2023-08-01T14:31:43;2.70;;;2.10;;
11066;SDS011;29763;50.904;5.530;2023-08-01T14:34:10;5.40;;;2.33;;
11066;SDS011;29763;50.904;5.530;2023-08-01T14:36:36;3.35;;;1.88;;
11066;SDS011;29763;50.904;5.530;2023-08-01T14:39:01;4.20;;;2.20;;
11066;SDS011;29763;50.904;5.530;2023-08-01T14:41:30;4.45;;;2.40;;
11066;SDS011;29763;50.904;5.530;2023-08-01T14:43:57;5.07;;;2.00;;
11066;SDS011;29763;50.904;5.530;2023-08-01T14:46:23;4.10;;;2.10;;
11066;SDS011;29763;50.904;5.530;2023-08-01T14:48:48;6.80;;;2.50;;
11066;SDS011;29763;50.904;5.530;2023-08-01T14:51:14;3.47;;;1.90;;
11066;SDS011;29763;50.904;5.530;2023-08-01T14:53:40;2.50;;;2.00;;
11066;SDS011;29763;50.904;5.530;2023-08-01T14:56:07;3.33;;;1.88;;